createdAt,value
2023-04-13T00:02:24.682Z,88.08
2023-04-13T00:04:52.628Z,88.34
2023-04-13T00:07:19.590Z,88.18
2023-04-13T00:09:47.579Z,88.48
2023-04-13T00:12:16.104Z,88.03
2023-04-13T00:14:44.308Z,88.37
2023-04-13T00:17:11.331Z,88.23
2023-04-13T00:19:40.618Z,88.45
2023-04-13T00:22:09.886Z,88.54
2023-04-13T00:24:37.224Z,88.15
2023-04-13T00:27:05.066Z,88.57
2023-04-13T00:29:32.614Z,88.32
2023-04-13T00:31:59.444Z,88.43
2023-04-13T00:34:26.629Z,88.67
2023-04-13T00:36:54.244Z,88.70
2023-04-13T00:39:23.394Z,88.73
2023-04-13T00:41:53.563Z,88.58
2023-04-13T00:44:21.993Z,88.63
2023-04-13T00:46:51.200Z,88.33
2023-04-13T00:49:18.788Z,88.86
2023-04-13T00:51:45.936Z,88.52
2023-04-13T00:54:17.046Z,88.89
2023-04-13T00:56:54.709Z,88.62
2023-04-13T00:59:23.010Z,88.90
2023-04-13T01:01:56.809Z,88.83
2023-04-13T01:04:28.166Z,89.05
2023-04-13T01:07:20.458Z,88.57
2023-04-13T01:09:52.697Z,88.96
2023-04-13T01:12:24.394Z,88.91
2023-04-13T01:15:18.911Z,88.84
2023-04-13T01:17:54.538Z,88.78
2023-04-13T01:20:22.835Z,88.77
2023-04-13T01:22:56.777Z,89.09
2023-04-13T01:25:40.882Z,88.89
2023-04-13T01:28:10.151Z,88.73
2023-04-13T01:30:39.000Z,88.70
2023-04-13T01:33:06.979Z,88.63
2023-04-13T01:35:34.518Z,88.94
2023-04-13T01:38:01.578Z,88.66
2023-04-13T01:40:30.546Z,88.45
2023-04-13T01:42:58.212Z,88.52
2023-04-13T01:45:37.351Z,88.79
2023-04-13T01:48:32.288Z,88.64
2023-04-13T01:51:06.024Z,88.38
2023-04-13T01:53:38.798Z,88.61
2023-04-13T01:56:06.703Z,88.36
2023-04-13T01:58:35.938Z,88.51
2023-04-13T02:01:09.703Z,88.22
2023-04-13T02:03:38.971Z,88.32
2023-04-13T02:06:07.602Z,88.50
2023-04-13T02:08:37.305Z,88.15
2023-04-13T02:11:04.718Z,88.22
2023-04-13T02:13:31.731Z,88.30
2023-04-13T02:15:59.462Z,88.14
2023-04-13T02:18:26.737Z,88.36
2023-04-13T02:21:03.775Z,88.04
2023-04-13T02:23:32.077Z,87.81
2023-04-13T02:25:59.385Z,88.13
2023-04-13T02:28:30.336Z,87.99
2023-04-13T02:30:59.999Z,87.51
2023-04-13T02:33:33.005Z,87.66
2023-04-13T02:36:04.010Z,87.58
2023-04-13T02:38:32.232Z,87.44
2023-04-13T02:41:00.756Z,87.42
2023-04-13T02:43:29.025Z,87.63
2023-04-13T02:45:59.565Z,87.67
2023-04-13T02:48:27.076Z,87.65
2023-04-13T02:50:54.774Z,87.33
2023-04-13T02:53:22.288Z,87.25
2023-04-13T02:55:54.409Z,87.25
2023-04-13T02:58:23.730Z,87.09
2023-04-13T03:00:51.028Z,87.28
2023-04-13T03:03:19.364Z,87.09
2023-04-13T03:05:47.423Z,87.27
2023-04-13T03:08:14.605Z,87.28
2023-04-13T03:10:41.758Z,87.42
2023-04-13T03:13:11.744Z,87.38
2023-04-13T03:15:38.608Z,87.35
2023-04-13T03:18:05.586Z,87.19
2023-04-13T03:20:32.968Z,87.53
2023-04-13T03:23:01.926Z,87.10
2023-04-13T03:25:29.278Z,87.41
2023-04-13T03:27:56.527Z,87.04
2023-04-13T03:30:23.513Z,87.38
2023-04-13T03:32:52.414Z,86.93
2023-04-13T03:35:20.641Z,86.92
2023-04-13T03:37:48.856Z,87.21
2023-04-13T03:40:15.744Z,86.97
2023-04-13T03:42:44.008Z,87.03
2023-04-13T03:45:13.567Z,87.03
2023-04-13T03:47:40.857Z,86.77
2023-04-13T03:50:09.016Z,87.16
2023-04-13T03:52:36.718Z,87.02
2023-04-13T03:55:04.205Z,86.98
2023-04-13T03:57:31.151Z,87.06
2023-04-13T03:59:58.258Z,87.17
2023-04-13T04:02:25.560Z,87.36
2023-04-13T04:04:52.886Z,87.38
2023-04-13T04:07:23.455Z,87.28
2023-04-13T04:09:51.491Z,87.09
2023-04-13T04:12:18.672Z,87.42
2023-04-13T04:14:45.548Z,87.40
2023-04-13T04:17:12.418Z,87.01
2023-04-13T04:19:39.394Z,87.00
2023-04-13T04:22:09.870Z,87.47
2023-04-13T04:24:37.856Z,86.94
2023-04-13T04:27:06.227Z,87.38
2023-04-13T04:29:36.116Z,87.15
2023-04-13T04:32:04.525Z,87.03
2023-04-13T04:34:32.201Z,87.22
2023-04-13T04:37:03.103Z,86.98
2023-04-13T04:39:33.160Z,87.26
2023-04-13T04:42:05.963Z,87.24
2023-04-13T04:44:37.620Z,87.01
2023-04-13T04:47:04.502Z,87.26
2023-04-13T04:49:31.675Z,87.32
2023-04-13T04:51:58.825Z,87.21
2023-04-13T04:54:27.090Z,87.31
2023-04-13T04:56:58.315Z,87.23
2023-04-13T04:59:26.537Z,87.28
2023-04-13T05:01:53.959Z,87.46
2023-04-13T05:04:21.417Z,87.36
2023-04-13T05:06:48.479Z,87.34
2023-04-13T05:09:15.551Z,87.33
2023-04-13T05:11:44.696Z,87.23
2023-04-13T05:14:11.965Z,87.63
2023-04-13T05:16:38.927Z,87.78
2023-04-13T05:19:09.182Z,87.75
2023-04-13T05:21:38.260Z,87.52
2023-04-13T05:24:06.767Z,87.38
2023-04-13T05:26:36.079Z,87.87
2023-04-13T05:29:04.786Z,87.63
2023-04-13T05:31:31.715Z,87.84
2023-04-13T05:33:58.595Z,87.69
2023-04-13T05:36:26.834Z,87.69
2023-04-13T05:38:54.204Z,87.57
2023-04-13T05:41:21.324Z,88.00
2023-04-13T05:43:51.602Z,87.74
2023-04-13T05:46:18.653Z,87.65
2023-04-13T05:48:46.102Z,87.69
2023-04-13T05:51:13.086Z,88.13
2023-04-13T05:53:40.827Z,87.99
2023-04-13T05:56:10.280Z,88.07
2023-04-13T05:58:37.381Z,87.77
2023-04-13T06:01:07.958Z,87.86
2023-04-13T06:03:35.097Z,87.98
2023-04-13T06:06:04.991Z,88.03
2023-04-13T06:08:35.049Z,88.17
2023-04-13T06:11:03.442Z,87.89
2023-04-13T06:13:32.621Z,87.93
2023-04-13T06:16:00.008Z,87.90
2023-04-13T06:18:27.376Z,88.26
2023-04-13T06:20:54.670Z,88.05
2023-04-13T06:23:22.369Z,88.23
2023-04-13T06:25:50.774Z,88.13
2023-04-13T06:28:17.671Z,87.85
2023-04-13T06:30:45.614Z,88.17
2023-04-13T06:33:12.890Z,88.35
2023-04-13T06:35:43.779Z,88.08
2023-04-13T06:38:12.222Z,88.14
2023-04-13T06:40:39.460Z,88.27
2023-04-13T06:43:13.477Z,88.22
2023-04-13T06:45:47.856Z,88.40
2023-04-13T06:48:14.946Z,88.23
2023-04-13T06:50:41.965Z,88.14
2023-04-13T06:53:10.712Z,87.98
2023-04-13T06:55:37.684Z,88.19
2023-04-13T06:58:06.280Z,88.13
2023-04-13T07:00:34.546Z,88.28
2023-04-13T07:03:02.332Z,88.22
2023-04-13T07:05:30.527Z,87.96
2023-04-13T07:07:57.603Z,87.82
2023-04-13T07:10:24.760Z,87.71
2023-04-13T07:12:52.242Z,87.73
2023-04-13T07:15:19.471Z,87.95
2023-04-13T07:17:46.507Z,87.98
2023-04-13T07:20:14.653Z,87.80
2023-04-13T07:22:41.996Z,87.97
2023-04-13T07:25:09.328Z,87.84
2023-04-13T07:27:36.247Z,87.65
2023-04-13T07:30:06.422Z,87.75
2023-04-13T07:32:33.423Z,87.42
2023-04-13T07:35:02.704Z,87.76
2023-04-13T07:37:29.930Z,87.58
2023-04-13T07:39:56.956Z,87.39
2023-04-13T07:42:25.326Z,87.69
2023-04-13T07:44:56.366Z,87.03
2023-04-13T07:47:23.299Z,87.25
2023-04-13T07:49:50.657Z,87.31
2023-04-13T07:52:20.041Z,87.20
2023-04-13T07:54:47.235Z,86.64
2023-04-13T07:57:14.431Z,86.77
2023-04-13T07:59:41.324Z,86.80
2023-04-13T08:02:11.223Z,86.69
2023-04-13T08:04:39.576Z,86.87
2023-04-13T08:07:10.202Z,86.92
2023-04-13T08:09:44.574Z,86.59
2023-04-13T08:12:11.636Z,86.66
2023-04-13T08:14:38.549Z,86.56
2023-04-13T08:17:06.344Z,87.15
2023-04-13T08:19:34.167Z,87.13
2023-04-13T08:22:03.746Z,87.64
2023-04-13T08:24:31.182Z,87.48
2023-04-13T08:26:59.518Z,88.06
2023-04-13T08:29:27.880Z,88.21
2023-04-13T08:31:56.728Z,89.02
2023-04-13T08:34:23.671Z,89.47
2023-04-13T08:36:51.124Z,90.38
2023-04-13T08:39:20.829Z,91.73
2023-04-13T08:41:48.702Z,93.09
2023-04-13T08:44:15.954Z,93.46
2023-04-13T08:46:45.889Z,93.30
2023-04-13T08:49:13.892Z,90.19
2023-04-13T08:51:43.950Z,86.51
2023-04-13T08:54:13.236Z,83.06
2023-04-13T08:56:46.904Z,79.30
2023-04-13T08:59:16.438Z,76.73
2023-04-13T09:01:46.776Z,73.95
2023-04-13T09:04:18.550Z,71.02
2023-04-13T09:06:50.444Z,68.96
2023-04-13T09:09:19.244Z,67.64
2023-04-13T09:11:48.445Z,65.02
2023-04-13T09:14:24.073Z,63.03
2023-04-13T09:16:51.414Z,61.81
2023-04-13T09:19:30.393Z,60.14
2023-04-13T09:22:00.188Z,58.71
2023-04-13T09:24:38.619Z,58.10
2023-04-13T09:27:05.781Z,56.93
2023-04-13T09:29:33.998Z,56.15
2023-04-13T09:32:07.198Z,55.65
2023-04-13T09:34:36.864Z,54.39
2023-04-13T09:37:13.947Z,53.93
2023-04-13T09:39:41.671Z,52.10
2023-04-13T09:42:12.503Z,51.92
2023-04-13T09:47:20.269Z,50.70
2023-04-13T09:49:47.343Z,49.55
2023-04-13T09:52:23.019Z,50.08
2023-04-13T09:54:54.481Z,49.43
2023-04-13T09:57:29.693Z,49.06
2023-04-13T10:00:14.451Z,48.28
2023-04-13T10:02:42.585Z,47.93
2023-04-13T10:05:10.357Z,48.03
2023-04-13T10:07:38.273Z,47.69
2023-04-13T10:10:06.924Z,46.87
2023-04-13T10:12:36.968Z,46.40
2023-04-13T10:15:15.226Z,46.91
2023-04-13T10:17:57.932Z,47.03
2023-04-13T10:20:26.670Z,45.98
2023-04-13T10:22:55.077Z,46.61
2023-04-13T10:25:32.626Z,46.63
2023-04-13T10:28:01.506Z,46.73
2023-04-13T10:30:29.250Z,46.47
2023-04-13T10:33:09.948Z,46.36
2023-04-13T10:35:39.430Z,45.94
2023-04-13T10:38:09.422Z,46.79
2023-04-13T10:40:47.593Z,47.13
2023-04-13T10:43:27.854Z,46.88
2023-04-13T10:46:12.150Z,47.44
2023-04-13T10:48:54.115Z,47.22
2023-04-13T10:51:21.253Z,47.60
2023-04-13T10:53:48.243Z,48.87
2023-04-13T10:56:19.400Z,49.59
2023-04-13T10:58:53.789Z,49.58
2023-04-13T11:01:21.039Z,50.12
2023-04-13T11:04:01.277Z,50.74
2023-04-13T11:06:42.369Z,51.15
2023-04-13T11:09:12.958Z,51.61
2023-04-13T11:11:42.827Z,51.83
2023-04-13T11:14:09.734Z,52.33
2023-04-13T11:16:46.291Z,52.49
2023-04-13T11:19:15.776Z,52.80
2023-04-13T11:21:45.096Z,52.54
2023-04-13T11:24:14.108Z,52.63
2023-04-13T11:26:42.992Z,52.97
2023-04-13T11:29:18.665Z,52.97
2023-04-13T11:31:45.560Z,53.20
2023-04-13T11:34:13.294Z,53.20
2023-04-13T11:36:41.187Z,53.96
2023-04-13T11:39:11.231Z,53.41
2023-04-13T11:41:42.052Z,53.67
2023-04-13T11:44:12.319Z,54.11
2023-04-13T11:46:39.501Z,53.93
2023-04-13T11:49:10.340Z,54.02
2023-04-13T11:51:41.784Z,53.15
2023-04-13T11:54:09.135Z,53.81
2023-04-13T11:56:36.730Z,53.78
2023-04-13T11:59:03.876Z,53.70
2023-04-13T12:01:34.429Z,53.42
2023-04-13T12:04:14.448Z,52.76
2023-04-13T12:06:49.957Z,52.56
2023-04-13T12:09:21.037Z,52.31
2023-04-13T12:12:11.970Z,52.61
2023-04-13T12:17:35.556Z,53.12
2023-04-13T12:20:03.735Z,52.10
2023-04-13T12:22:55.196Z,52.29
2023-04-13T12:25:35.694Z,52.09
2023-04-13T12:28:03.603Z,51.84
2023-04-13T12:30:32.945Z,51.49
2023-04-13T12:33:01.049Z,51.44
2023-04-13T12:35:29.320Z,50.64
2023-04-13T12:37:57.980Z,50.45
2023-04-13T12:40:25.430Z,50.26
2023-04-13T12:42:52.267Z,50.40
2023-04-13T12:45:23.679Z,50.17
2023-04-13T12:47:52.987Z,49.61
2023-04-13T12:50:19.962Z,49.83
2023-04-13T12:52:47.357Z,50.28
2023-04-13T12:55:14.325Z,50.78
2023-04-13T12:57:45.039Z,51.66
2023-04-13T13:00:13.847Z,52.54
2023-04-13T13:02:41.021Z,52.90
2023-04-13T13:05:09.587Z,53.52
2023-04-13T13:07:37.177Z,53.60
2023-04-13T13:10:09.567Z,53.71
2023-04-13T13:12:42.477Z,54.17
2023-04-13T13:15:15.130Z,54.16
2023-04-13T13:17:43.339Z,53.94
2023-04-13T13:20:13.363Z,54.22
2023-04-13T13:22:42.357Z,53.98
2023-04-13T13:25:10.499Z,54.26
2023-04-13T13:30:10.127Z,54.49
2023-04-13T13:32:39.283Z,54.39
2023-04-13T13:35:08.819Z,54.18
2023-04-13T13:37:36.138Z,53.93
2023-04-13T13:40:13.484Z,53.68
2023-04-13T13:45:12.453Z,52.73
2023-04-13T13:47:39.721Z,52.49
2023-04-13T13:50:07.191Z,50.58
2023-04-13T13:52:34.082Z,50.58
2023-04-13T13:55:03.925Z,49.75
2023-04-13T13:57:31.137Z,49.67
2023-04-13T13:59:58.353Z,50.95
2023-04-13T14:02:27.421Z,52.06
2023-04-13T14:04:54.334Z,53.33
2023-04-13T14:07:24.281Z,54.05
2023-04-13T14:09:51.258Z,54.24
2023-04-13T14:12:18.074Z,53.87
2023-04-13T14:14:46.423Z,53.15
2023-04-13T14:17:13.352Z,52.90
2023-04-13T14:19:41.844Z,52.86
2023-04-13T14:22:10.049Z,53.81
2023-04-13T14:24:37.008Z,55.13
2023-04-13T14:27:03.919Z,55.83
2023-04-13T14:29:31.950Z,55.88
2023-04-13T14:31:58.953Z,55.86
2023-04-13T14:34:25.953Z,56.19
2023-04-13T14:36:54.305Z,56.51
2023-04-13T14:39:21.360Z,56.90
2023-04-13T14:41:49.508Z,57.35
2023-04-13T14:44:16.431Z,56.77
2023-04-13T14:46:43.713Z,55.80
2023-04-13T14:49:11.954Z,54.84
2023-04-13T14:51:42.167Z,54.59
2023-04-13T14:54:09.351Z,53.34
2023-04-13T14:56:40.422Z,52.60
2023-04-13T14:59:07.384Z,52.25
2023-04-13T15:01:35.858Z,51.52
2023-04-13T15:04:03.413Z,50.24
2023-04-13T15:06:30.437Z,49.27
2023-04-13T15:09:00.750Z,48.94
2023-04-13T15:11:29.063Z,48.50
2023-04-13T15:13:55.980Z,48.37
2023-04-13T15:16:22.937Z,47.45
2023-04-13T15:18:49.917Z,47.54
2023-04-13T15:21:16.902Z,46.98
2023-04-13T15:23:43.825Z,46.89
2023-04-13T15:26:17.364Z,46.88
2023-04-13T15:28:45.424Z,46.88
2023-04-13T15:31:13.821Z,47.13
2023-04-13T15:33:40.823Z,46.71
2023-04-13T15:36:09.794Z,46.00
2023-04-13T15:38:36.604Z,44.97
2023-04-13T15:41:03.606Z,45.26
2023-04-13T15:43:30.604Z,46.89
2023-04-13T15:45:59.336Z,48.94
2023-04-13T15:48:26.554Z,50.24
2023-04-13T15:51:00.484Z,50.77
2023-04-13T15:53:28.972Z,50.72
2023-04-13T15:55:57.615Z,51.21
2023-04-13T15:58:25.944Z,51.39
2023-04-13T16:01:08.014Z,51.21
2023-04-13T16:03:36.468Z,50.59
2023-04-13T16:06:04.038Z,49.52
2023-04-13T16:08:31.428Z,48.51
2023-04-13T16:10:58.851Z,47.84
2023-04-13T16:13:37.570Z,46.66
2023-04-13T16:16:14.860Z,46.01
2023-04-13T16:18:44.605Z,45.65
2023-04-13T16:21:12.716Z,45.12
2023-04-13T16:23:40.960Z,45.49
2023-04-13T16:26:11.669Z,45.04
2023-04-13T16:28:38.723Z,45.13
2023-04-13T16:31:10.025Z,45.58
2023-04-13T16:33:36.982Z,46.31
2023-04-13T16:36:03.949Z,47.03
2023-04-13T16:38:31.839Z,47.04
2023-04-13T16:40:58.980Z,47.24
2023-04-13T16:43:26.135Z,47.66
2023-04-13T16:45:54.111Z,48.36
2023-04-13T16:48:23.367Z,49.00
2023-04-13T16:50:59.200Z,49.06
2023-04-13T16:53:27.051Z,49.42
2023-04-13T16:55:55.561Z,49.56
2023-04-13T16:58:22.429Z,49.48
2023-04-13T17:00:51.224Z,49.24
2023-04-13T17:03:18.415Z,49.08
2023-04-13T17:05:46.339Z,48.94
2023-04-13T17:08:15.627Z,48.85
2023-04-13T17:10:44.442Z,48.82
2023-04-13T17:13:11.478Z,49.29
2023-04-13T17:15:38.677Z,49.21
2023-04-13T17:18:05.682Z,48.78
2023-04-13T17:20:32.567Z,48.71
2023-04-13T17:23:00.453Z,48.61
2023-04-13T17:25:27.594Z,48.25
2023-04-13T17:27:55.166Z,48.23
2023-04-13T17:30:22.873Z,48.10
2023-04-13T17:32:50.298Z,48.06
2023-04-13T17:35:17.302Z,47.81
2023-04-13T17:37:44.176Z,47.67
2023-04-13T17:40:11.818Z,47.66
2023-04-13T17:42:38.644Z,47.71
2023-04-13T17:45:06.150Z,47.87
2023-04-13T17:47:40.479Z,47.90
2023-04-13T17:50:07.959Z,48.23
2023-04-13T17:52:35.816Z,48.41
2023-04-13T17:55:05.480Z,48.75
2023-04-13T17:57:34.077Z,48.59
2023-04-13T18:00:01.492Z,49.07
2023-04-13T18:02:28.703Z,49.32
2023-04-13T18:04:55.807Z,49.39
2023-04-13T18:07:23.307Z,49.74
2023-04-13T18:09:50.448Z,50.15
2023-04-13T18:12:17.856Z,50.59
2023-04-13T18:14:44.777Z,50.62
2023-04-13T18:17:11.605Z,50.98
2023-04-13T18:19:38.576Z,51.36
2023-04-13T18:22:05.524Z,51.56
2023-04-13T18:24:32.938Z,51.34
2023-04-13T18:26:59.825Z,51.62
2023-04-13T18:29:26.674Z,51.67
2023-04-13T18:31:54.216Z,51.34
2023-04-13T18:34:21.254Z,51.33
2023-04-13T18:36:48.144Z,51.43
2023-04-13T18:39:17.609Z,51.37
2023-04-13T18:41:46.242Z,51.37
2023-04-13T18:44:13.482Z,51.70
2023-04-13T18:46:41.266Z,51.67
2023-04-13T18:49:08.221Z,52.04
2023-04-13T18:51:37.765Z,52.05
2023-04-13T18:54:04.843Z,52.34
2023-04-13T18:56:32.104Z,52.19
2023-04-13T18:58:59.098Z,52.21
2023-04-13T19:01:26.455Z,52.47
2023-04-13T19:03:54.016Z,52.54
2023-04-13T19:06:21.328Z,52.81
2023-04-13T19:08:48.223Z,53.00
2023-04-13T19:11:16.411Z,53.36
2023-04-13T19:13:45.617Z,53.45
2023-04-13T19:16:14.064Z,53.80
2023-04-13T19:18:41.151Z,54.09
2023-04-13T19:21:11.385Z,54.36
2023-04-13T19:23:40.256Z,54.50
2023-04-13T19:26:07.465Z,54.92
2023-04-13T19:28:34.248Z,55.21
2023-04-13T19:31:02.624Z,55.26
2023-04-13T19:33:29.485Z,55.62
2023-04-13T19:35:59.927Z,55.99
2023-04-13T19:38:27.177Z,56.43
2023-04-13T19:41:04.752Z,56.55
2023-04-13T19:43:31.822Z,56.98
2023-04-13T19:45:59.845Z,57.70
2023-04-13T19:48:27.900Z,58.06
2023-04-13T19:50:54.911Z,58.20
2023-04-13T19:53:22.252Z,58.47
2023-04-13T19:55:53.006Z,58.73
2023-04-13T19:58:22.385Z,58.91
2023-04-13T20:00:50.683Z,59.23
2023-04-13T20:03:20.598Z,59.30
2023-04-13T20:05:48.358Z,59.15
2023-04-13T20:08:16.559Z,58.96
2023-04-13T20:10:44.908Z,59.00
2023-04-13T20:13:14.829Z,59.10
2023-04-13T20:15:44.472Z,59.08
2023-04-13T20:18:11.945Z,59.07
2023-04-13T20:20:42.577Z,59.30
2023-04-13T20:23:11.153Z,59.39
2023-04-13T20:25:39.002Z,59.59
2023-04-13T20:28:07.365Z,59.89
2023-04-13T20:30:35.674Z,60.35
2023-04-13T20:33:07.084Z,60.60
2023-04-13T20:35:35.445Z,60.81
2023-04-13T20:38:02.375Z,61.17
2023-04-13T20:40:29.436Z,61.23
2023-04-13T20:42:58.622Z,61.04
2023-04-13T20:45:30.740Z,61.15
2023-04-13T20:50:48.735Z,61.41
2023-04-13T20:53:17.488Z,61.92
2023-04-13T20:55:44.520Z,62.27
2023-04-13T20:58:13.906Z,62.40
2023-04-13T21:00:43.035Z,62.53
2023-04-13T21:03:10.475Z,62.68
2023-04-13T21:05:37.729Z,62.56
2023-04-13T21:08:04.649Z,62.62
2023-04-13T21:10:31.860Z,62.68
2023-04-13T21:13:00.891Z,62.84
2023-04-13T21:15:27.721Z,62.88
2023-04-13T21:17:55.891Z,62.91
2023-04-13T21:20:22.952Z,62.86
2023-04-13T21:22:49.916Z,63.19
2023-04-13T21:25:16.785Z,63.53
2023-04-13T21:27:43.697Z,63.65
2023-04-13T21:30:11.117Z,63.54
2023-04-13T21:32:38.190Z,63.77
2023-04-13T21:35:06.849Z,63.63
2023-04-13T21:37:33.717Z,63.77
2023-04-13T21:40:02.393Z,63.88
2023-04-13T21:42:29.282Z,63.96
2023-04-13T21:44:57.215Z,63.78
2023-04-13T21:47:26.572Z,64.02
2023-04-13T21:49:53.439Z,63.97
2023-04-13T21:52:24.377Z,64.06
2023-04-13T21:54:51.856Z,64.08
2023-04-13T21:57:20.025Z,63.94
2023-04-13T21:59:46.830Z,64.06
2023-04-13T22:02:14.815Z,64.10
2023-04-13T22:04:43.132Z,63.99
2023-04-13T22:07:09.981Z,64.16
2023-04-13T22:09:37.008Z,64.19
2023-04-13T22:12:04.637Z,64.28
2023-04-13T22:14:31.991Z,64.36
2023-04-13T22:17:00.649Z,64.42
2023-04-13T22:19:27.694Z,64.53
2023-04-13T22:21:56.389Z,64.48
2023-04-13T22:24:24.783Z,64.76
2023-04-13T22:26:51.928Z,64.75
2023-04-13T22:29:18.812Z,64.82
2023-04-13T22:31:46.105Z,65.04
2023-04-13T22:34:13.102Z,64.88
2023-04-13T22:36:41.423Z,65.07
2023-04-13T22:39:08.301Z,65.11
2023-04-13T22:41:37.218Z,65.24
2023-04-13T22:44:04.809Z,65.53
2023-04-13T22:46:31.710Z,65.33
2023-04-13T22:48:59.140Z,65.40
2023-04-13T22:51:29.874Z,65.58
2023-04-13T22:53:58.143Z,65.43
2023-04-13T22:56:25.190Z,65.58
2023-04-13T22:58:54.992Z,65.79
2023-04-13T23:01:21.954Z,65.81
2023-04-13T23:03:49.925Z,65.91
2023-04-13T23:06:16.869Z,65.88
2023-04-13T23:08:43.743Z,66.09
2023-04-13T23:11:11.973Z,66.07
2023-04-13T23:13:41.936Z,66.06
2023-04-13T23:16:08.879Z,66.10
2023-04-13T23:18:35.909Z,66.38
2023-04-13T23:21:13.151Z,66.39
2023-04-13T23:23:40.386Z,66.51
2023-04-13T23:26:07.460Z,66.44
2023-04-13T23:28:34.291Z,66.43
2023-04-13T23:31:08.676Z,66.67
2023-04-13T23:33:36.532Z,66.46
2023-04-13T23:36:04.199Z,66.55
2023-04-13T23:38:32.270Z,67.10
2023-04-13T23:40:59.307Z,67.26
2023-04-13T23:43:26.305Z,67.54
2023-04-13T23:45:53.947Z,67.51
2023-04-13T23:48:26.376Z,67.58
2023-04-13T23:50:53.535Z,67.64
2023-04-13T23:53:20.477Z,67.88
2023-04-13T23:55:47.342Z,67.84
2023-04-13T23:58:14.178Z,68.04
